Time;durP1;ratioP1;P1;durP2;ratioP2;P2;SDS_P1;SDS_P2;PMS_P1;PMS_P2;Temp;Humidity;BMP_temperature;BMP_pressure;BME280_temperature;BME280_humidity;BME280_pressure;Samples;Min_cycle;Max_cycle;Signal;HPM_P1;HPM_P2
2022/05/30 00:03:14;;;;;;;12.65;1.52;;;;;;;10.00;100.00;101027.72;10258626;28;20111;-62
2022/05/30 00:08:10;;;;;;;9.55;1.50;;;;;;;9.95;100.00;101032.47;10262675;28;20057;-62
2022/05/30 00:13:06;;;;;;;12.95;1.38;;;;;;;9.99;100.00;101026.09;10248275;28;20103;-62
2022/05/30 00:18:03;;;;;;;15.25;1.95;;;;;;;9.95;100.00;101024.28;10258163;28;20045;-64
2022/05/30 00:22:59;;;;;;;14.30;1.50;;;;;;;9.86;100.00;101016.81;10251150;28;20111;-65
2022/05/30 00:27:56;;;;;;;6.07;1.50;;;;;;;9.82;100.00;101024.00;10258924;28;20106;-63
2022/05/30 00:32:52;;;;;;;9.88;1.35;;;;;;;9.84;100.00;101027.25;10256326;28;20103;-63
2022/05/30 00:37:49;;;;;;;14.27;2.25;;;;;;;9.81;100.00;101024.28;10257474;28;20567;-62
2022/05/30 00:42:45;;;;;;;8.80;1.17;;;;;;;9.75;100.00;101026.34;10258900;28;20044;-62
2022/05/30 00:47:42;;;;;;;7.70;2.15;;;;;;;9.76;100.00;101033.41;10251430;28;20067;-63
2022/05/30 00:52:41;;;;;;;11.95;1.60;;;;;;;9.77;100.00;101028.75;10234903;28;20037;-62
2022/05/30 00:57:41;;;;;;;11.23;1.58;;;;;;;9.69;100.00;101033.00;10251521;28;20135;-63
2022/05/30 01:07:44;;;;;;;10.10;1.65;;;;;;;9.64;100.00;101031.19;10921096;22;20125;-63
2022/05/30 01:12:52;;;;;;;7.28;1.38;;;;;;;9.65;100.00;101027.34;10246693;28;20566;-62
2022/05/30 01:18:10;;;;;;;8.63;1.48;;;;;;;9.61;100.00;101031.00;10219767;28;20133;-62
2022/05/30 01:23:38;;;;;;;12.80;1.65;;;;;;;9.65;100.00;101032.00;10220208;28;20053;-62
2022/05/30 01:29:08;;;;;;;7.65;1.45;;;;;;;9.64;100.00;101019.47;10219986;28;20068;-63
2022/05/30 01:34:05;;;;;;;10.73;1.88;;;;;;;9.61;100.00;101028.28;10223628;28;20069;-64
2022/05/30 01:39:02;;;;;;;10.95;1.95;;;;;;;9.63;100.00;101024.13;10209686;28;20053;-63
2022/05/30 01:43:59;;;;;;;9.52;1.58;;;;;;;9.66;100.00;101017.25;10215923;28;20080;-63
2022/05/30 01:48:55;;;;;;;7.50;1.42;;;;;;;9.71;100.00;101019.88;10222171;28;20124;-63
2022/05/30 01:53:52;;;;;;;9.60;1.60;;;;;;;9.73;100.00;101014.09;10218637;28;20475;-63
2022/05/30 01:58:48;;;;;;;5.38;1.35;;;;;;;9.71;100.00;101019.06;10213960;28;20080;-63
2022/05/30 02:03:47;;;;;;;15.07;2.30;;;;;;;9.77;100.00;101017.81;10218073;28;20046;-62
2022/05/30 02:08:43;;;;;;;10.15;1.40;;;;;;;9.67;100.00;101010.66;10219930;28;20141;-63
2022/05/30 02:13:40;;;;;;;10.85;1.45;;;;;;;9.72;100.00;101016.00;10215027;28;20092;-63
2022/05/30 02:18:36;;;;;;;9.50;1.98;;;;;;;9.65;100.00;101015.59;10216520;28;20065;-64
2022/05/30 02:23:33;;;;;;;15.88;1.95;;;;;;;9.60;100.00;101018.44;10222881;28;20042;-62
2022/05/30 02:28:29;;;;;;;16.65;1.75;;;;;;;9.55;100.00;101021.28;10228872;28;20560;-65
2022/05/30 02:38:41;;;;;;;14.80;1.88;;;;;;;9.62;100.00;101029.88;10211258;28;20895;-65
2022/05/30 02:43:39;;;;;;;5.72;1.10;;;;;;;9.65;100.00;101021.06;10229585;28;20574;-64
2022/05/30 02:48:36;;;;;;;7.10;1.20;;;;;;;9.56;100.00;101028.34;10215914;28;20045;-65
2022/05/30 02:53:33;;;;;;;9.95;1.27;;;;;;;9.53;100.00;101034.41;10223445;28;20041;-63
2022/05/30 02:58:30;;;;;;;12.73;1.52;;;;;;;9.39;100.00;101035.22;10218360;28;20136;-63
2022/05/30 03:03:26;;;;;;;8.88;1.55;;;;;;;9.43;100.00;101036.25;10220535;28;20045;-63
2022/05/30 03:08:23;;;;;;;10.57;1.33;;;;;;;9.46;100.00;101040.28;10230583;28;20041;-63
2022/05/30 03:13:19;;;;;;;13.60;1.80;;;;;;;9.45;100.00;101044.94;10217180;28;20068;-64
2022/05/30 03:18:16;;;;;;;5.82;1.30;;;;;;;9.39;100.00;101040.66;10201331;28;20080;-64
2022/05/30 03:23:13;;;;;;;7.13;1.40;;;;;;;9.42;100.00;101040.09;10212444;28;20045;-62
2022/05/30 03:28:09;;;;;;;8.75;1.65;;;;;;;9.43;100.00;101040.91;10202547;28;20045;-63
2022/05/30 03:33:08;;;;;;;8.48;1.10;;;;;;;9.48;100.00;101044.31;10190221;28;20049;-65
2022/05/30 03:38:06;;;;;;;14.07;1.60;;;;;;;9.44;100.00;101051.50;10179942;28;20045;-66
2022/05/30 03:43:07;;;;;;;10.75;1.73;;;;;;;9.44;100.00;101053.41;10201967;28;20053;-65
2022/05/30 03:48:04;;;;;;;12.65;1.55;;;;;;;9.48;100.00;101047.06;10209033;28;20111;-64
2022/05/30 03:53:04;;;;;;;9.27;1.25;;;;;;;9.55;100.00;101043.13;10221573;28;20077;-67
2022/05/30 03:58:06;;;;;;;12.45;1.60;;;;;;;9.52;100.00;101038.28;10211203;28;20212;-67
2022/05/30 04:03:03;;;;;;;11.02;1.92;;;;;;;9.57;100.00;101040.91;10214898;28;20069;-67
2022/05/30 04:07:59;;;;;;;11.13;1.45;;;;;;;9.67;100.00;101048.88;10216724;28;20067;-67
2022/05/30 04:13:02;;;;;;;9.10;1.38;;;;;;;9.72;100.00;101051.50;10212451;28;20049;-67
2022/05/30 04:17:58;;;;;;;10.10;1.65;;;;;;;9.78;100.00;101053.03;10199254;28;20045;-67
2022/05/30 04:22:55;;;;;;;10.05;1.40;;;;;;;9.84;100.00;101046.34;10201600;28;20072;-66
2022/05/30 04:27:51;;;;;;;8.75;1.55;;;;;;;9.85;100.00;101058.88;10200676;28;20403;-66
2022/05/30 04:32:48;;;;;;;10.18;2.20;;;;;;;9.82;100.00;101059.50;10200511;28;20128;-67
2022/05/30 04:37:46;;;;;;;11.43;1.63;;;;;;;9.88;100.00;101058.28;10190454;28;20661;-67
2022/05/30 04:42:45;;;;;;;9.55;1.65;;;;;;;9.97;100.00;101065.75;10199811;28;20146;-66
2022/05/30 04:47:42;;;;;;;11.00;1.73;;;;;;;10.05;100.00;101073.25;10217186;28;20069;-68
2022/05/30 04:52:38;;;;;;;6.28;1.80;;;;;;;10.06;100.00;101074.84;10217884;28;20054;-67
2022/05/30 04:57:46;;;;;;;9.52;1.77;;;;;;;10.01;100.00;101077.69;10185431;28;20128;-65
2022/05/30 05:02:43;;;;;;;9.68;2.35;;;;;;;10.05;100.00;101078.72;10196814;28;20072;-65
2022/05/30 05:07:58;;;;;;;15.07;2.03;;;;;;;10.05;100.00;101081.44;10196395;28;20049;-63
2022/05/30 05:12:55;;;;;;;6.88;1.70;;;;;;;10.10;100.00;101081.34;10204600;28;20491;-64
2022/05/30 05:17:53;;;;;;;10.10;1.73;;;;;;;10.15;100.00;101077.69;10208506;28;20076;-64
2022/05/30 05:22:51;;;;;;;13.23;2.20;;;;;;;10.27;100.00;101076.03;10217366;28;20103;-64
2022/05/30 05:27:49;;;;;;;9.02;1.67;;;;;;;10.20;100.00;101085.78;10222112;28;20077;-64
2022/05/30 05:32:45;;;;;;;10.88;1.85;;;;;;;10.12;100.00;101090.03;10211262;28;20115;-64
2022/05/30 05:37:42;;;;;;;9.15;1.63;;;;;;;10.15;100.00;101089.41;10217973;28;20572;-63
2022/05/30 05:42:38;;;;;;;12.50;2.67;;;;;;;10.18;100.00;101094.25;10222982;28;20108;-64
2022/05/30 05:47:35;;;;;;;10.18;2.13;;;;;;;10.22;100.00;101089.81;10215065;28;20073;-64
2022/05/30 05:52:32;;;;;;;11.20;2.45;;;;;;;10.27;100.00;101097.91;10214766;28;20134;-64
2022/05/30 05:57:29;;;;;;;11.20;2.90;;;;;;;10.30;100.00;101102.78;10220985;28;20099;-66
2022/05/30 06:02:27;;;;;;;10.95;1.70;;;;;;;10.21;100.00;101104.59;10219856;28;20455;-65
2022/05/30 06:07:24;;;;;;;10.50;2.25;;;;;;;10.23;100.00;101107.00;10229320;28;20084;-65
2022/05/30 06:12:20;;;;;;;10.20;2.03;;;;;;;10.26;100.00;101107.22;10225375;28;20121;-65
2022/05/30 06:17:17;;;;;;;7.95;1.70;;;;;;;10.24;100.00;101109.44;10211749;28;20500;-65
2022/05/30 06:22:13;;;;;;;7.05;1.77;;;;;;;10.34;100.00;101107.66;10223772;28;20064;-65
2022/05/30 06:27:15;;;;;;;10.32;1.70;;;;;;;10.47;100.00;101117.75;10223325;28;20099;-65
2022/05/30 06:32:11;;;;;;;8.02;1.52;;;;;;;10.53;100.00;101117.31;10219732;28;20072;-65
2022/05/30 06:37:10;;;;;;;9.35;2.28;;;;;;;10.55;100.00;101125.19;10221895;28;20041;-65
2022/05/30 06:42:11;;;;;;;7.90;1.95;;;;;;;10.45;100.00;101128.19;10223491;28;20045;-65
2022/05/30 06:47:08;;;;;;;7.55;1.40;;;;;;;10.38;100.00;101127.78;10218275;28;20045;-65
2022/05/30 06:52:04;;;;;;;12.75;2.22;;;;;;;10.35;100.00;101126.47;10229327;28;20096;-65
2022/05/30 07:02:16;;;;;;;11.68;1.90;;;;;;;10.46;100.00;101124.31;10233241;28;20076;-65
2022/05/30 07:07:12;;;;;;;7.85;1.50;;;;;;;10.53;100.00;101127.44;10224721;28;20107;-65
2022/05/30 07:12:09;;;;;;;7.72;1.95;;;;;;;10.43;100.00;101128.47;10220300;28;20045;-67
2022/05/30 07:17:10;;;;;;;7.07;1.45;;;;;;;10.34;100.00;101134.97;10218790;28;20562;-67
2022/05/30 07:22:07;;;;;;;8.25;1.55;;;;;;;10.50;100.00;101139.00;10227049;28;20088;-67
2022/05/30 07:27:04;;;;;;;7.35;1.35;;;;;;;10.71;100.00;101139.34;10224935;28;20121;-67
2022/05/30 07:32:03;;;;;;;6.70;1.05;;;;;;;10.68;100.00;101135.31;10223855;28;20053;-67
2022/05/30 07:37:00;;;;;;;4.13;0.85;;;;;;;10.81;100.00;101132.81;10220072;28;20081;-67
2022/05/30 07:41:56;;;;;;;8.25;1.30;;;;;;;10.72;100.00;101136.31;10229198;28;20041;-66
2022/05/30 07:46:53;;;;;;;8.20;1.20;;;;;;;10.79;100.00;101135.06;10217933;28;20511;-67
2022/05/30 07:51:55;;;;;;;3.50;0.87;;;;;;;10.86;100.00;101135.44;10225787;28;20179;-67
2022/05/30 07:56:51;;;;;;;7.60;1.20;;;;;;;10.89;100.00;101134.84;10205537;28;20042;-67
2022/05/30 08:01:48;;;;;;;6.50;1.23;;;;;;;10.82;100.00;101139.94;10216540;28;20108;-67
2022/05/30 08:06:45;;;;;;;7.97;1.30;;;;;;;10.63;100.00;101138.16;10220966;28;20044;-67
2022/05/30 08:11:41;;;;;;;5.25;1.25;;;;;;;10.57;100.00;101150.31;10213933;28;20575;-67
2022/05/30 08:16:39;;;;;;;10.75;2.13;;;;;;;10.48;100.00;101146.69;10205554;28;20551;-66
2022/05/30 08:21:51;;;;;;;8.45;1.38;;;;;;;10.38;100.00;101155.94;10211757;28;20054;-67
2022/05/30 08:26:48;;;;;;;7.03;1.85;;;;;;;10.43;100.00;101160.47;10213379;28;20096;-66
2022/05/30 08:31:44;;;;;;;6.38;1.40;;;;;;;10.26;100.00;101161.06;10208504;28;20174;-66
2022/05/30 08:36:41;;;;;;;10.60;1.48;;;;;;;10.31;100.00;101167.25;10212030;28;20137;-67
2022/05/30 08:41:49;;;;;;;6.38;1.33;;;;;;;10.41;100.00;101168.16;10220970;28;20042;-66
2022/05/30 08:46:57;;;;;;;5.35;1.40;;;;;;;10.51;100.00;101173.41;10220768;28;20083;-66
2022/05/30 08:52:06;;;;;;;9.57;1.55;;;;;;;10.74;100.00;101168.81;10223049;28;20045;-68
2022/05/30 08:57:08;;;;;;;5.15;1.00;;;;;;;10.97;100.00;101175.13;10209247;28;20045;-67
2022/05/30 09:02:20;;;;;;;9.25;1.50;;;;;;;11.06;100.00;101178.75;10223042;28;20049;-68
2022/05/30 09:07:22;;;;;;;5.45;1.50;;;;;;;11.25;100.00;101175.03;10212268;28;20034;-68
2022/05/30 09:12:33;;;;;;;6.22;1.40;;;;;;;11.40;100.00;101166.44;10218744;28;20570;-67
2022/05/30 09:18:00;;;;;;;7.20;1.73;;;;;;;11.70;100.00;101164.03;10212844;28;20041;-68
2022/05/30 09:23:01;;;;;;;6.32;1.30;;;;;;;11.86;100.00;101161.69;10216300;28;20111;-67
2022/05/30 09:27:58;;;;;;;4.85;1.13;;;;;;;11.92;100.00;101155.78;10222927;28;20496;-67
2022/05/30 09:33:14;;;;;;;4.07;1.45;;;;;;;11.82;100.00;101167.00;10224180;28;20077;-67
2022/05/30 09:38:18;;;;;;;7.80;1.50;;;;;;;11.85;100.00;101173.78;10220017;28;20088;-67
2022/05/30 09:43:27;;;;;;;3.25;0.60;;;;;;;11.57;100.00;101177.47;10227685;28;20045;-67
2022/05/30 09:48:24;;;;;;;4.72;0.93;;;;;;;11.30;100.00;101188.56;10230175;28;20041;-66
2022/05/30 09:53:45;;;;;;;6.10;1.80;;;;;;;11.02;100.00;101194.16;10225049;28;20049;-67
2022/05/30 09:59:29;;;;;;;8.88;2.10;;;;;;;10.95;100.00;101194.59;10217129;28;20073;-66
2022/05/30 10:04:41;;;;;;;3.08;0.60;;;;;;;10.93;100.00;101196.84;10213336;28;20076;-66
2022/05/30 10:09:52;;;;;;;5.07;1.00;;;;;;;10.93;100.00;101198.75;10219420;28;20068;-66
2022/05/30 10:14:49;;;;;;;6.03;0.85;;;;;;;11.00;100.00;101196.41;10220211;28;20095;-67
2022/05/30 10:19:48;;;;;;;3.75;1.10;;;;;;;11.00;100.00;101212.84;10215141;28;20140;-67
2022/05/30 10:30:52;;;;;;;3.35;0.82;;;;;;;11.25;100.00;101218.81;10210755;28;20132;-64
2022/05/30 10:36:11;;;;;;;4.93;0.98;;;;;;;11.43;100.00;101209.63;10201656;28;20052;-66
2022/05/30 10:41:15;;;;;;;3.20;0.60;;;;;;;11.71;100.00;101209.47;10231223;28;20095;-66
2022/05/30 10:46:27;;;;;;;3.92;1.08;;;;;;;12.03;100.00;101215.81;10217404;28;20095;-66
2022/05/30 10:51:29;;;;;;;3.15;0.50;;;;;;;12.26;100.00;101214.59;10214019;28;20061;-66
2022/05/30 10:56:39;;;;;;;5.63;1.20;;;;;;;12.49;100.00;101218.06;10215854;28;20049;-65
2022/05/30 11:02:05;;;;;;;1.35;0.30;;;;;;;12.58;100.00;101220.84;10218686;28;20046;-66
2022/05/30 11:07:42;;;;;;;2.13;0.50;;;;;;;12.92;100.00;101213.78;10221600;28;20052;-66
2022/05/30 11:12:43;;;;;;;2.05;0.45;;;;;;;13.24;100.00;101221.53;10217173;28;20107;-66
2022/05/30 11:18:10;;;;;;;0.98;0.30;;;;;;;13.62;100.00;101209.91;10213957;28;20042;-66
2022/05/30 11:23:07;;;;;;;2.83;0.30;;;;;;;13.61;100.00;101212.97;10226869;28;20116;-67
2022/05/30 11:28:34;;;;;;;1.17;0.30;;;;;;;13.56;100.00;101211.22;10221318;28;20111;-67
2022/05/30 11:33:49;;;;;;;1.92;0.32;;;;;;;13.68;100.00;101211.34;10219980;28;20482;-67
2022/05/30 11:39:06;;;;;;;2.30;0.47;;;;;;;13.66;100.00;101216.34;10222337;28;20093;-66
2022/05/30 11:44:20;;;;;;;2.88;0.50;;;;;;;13.53;100.00;101211.88;10215328;28;20184;-67
2022/05/30 11:49:33;;;;;;;2.22;0.52;;;;;;;13.47;100.00;101213.16;10220595;28;20467;-67
2022/05/30 11:54:57;;;;;;;2.17;0.50;;;;;;;13.41;100.00;101214.44;10225319;28;20092;-67
2022/05/30 12:00:25;;;;;;;3.38;0.80;;;;;;;13.00;100.00;101210.25;10214007;28;20555;-67
2022/05/30 12:05:57;;;;;;;2.85;0.55;;;;;;;12.75;100.00;101223.59;10224892;28;20115;-67
2022/05/30 12:11:15;;;;;;;3.50;0.65;;;;;;;12.60;100.00;101229.53;10221538;28;20433;-67
2022/05/30 12:16:40;;;;;;;3.00;0.50;;;;;;;12.22;100.00;101230.06;10209830;28;20041;-67
2022/05/30 12:26:58;;;;;;;1.92;0.38;;;;;;;12.12;100.00;101231.16;10225535;28;20069;-67
2022/05/30 12:32:10;;;;;;;;;;;;;;;12.08;100.00;101229.38;10225849;28;20099;-67
2022/05/30 12:37:07;;;;;;;3.22;0.50;;;;;;;11.97;100.00;101239.78;10214395;28;19921;-66
2022/05/30 12:42:08;;;;;;;3.75;0.52;;;;;;;12.22;100.00;101238.28;10227517;28;20072;-67
2022/05/30 12:47:13;;;;;;;3.05;0.63;;;;;;;12.34;100.00;101235.75;10222604;28;20046;-67
2022/05/30 12:52:18;;;;;;;4.38;1.33;;;;;;;12.67;100.00;101245.53;10212348;28;20041;-67
2022/05/30 12:57:35;;;;;;;7.40;1.55;;;;;;;12.76;100.00;101244.41;10218699;28;20128;-67
2022/05/30 13:02:51;;;;;;;4.28;1.30;;;;;;;12.94;100.00;101249.97;10222679;28;20079;-67
2022/05/30 13:07:48;;;;;;;4.97;1.23;;;;;;;13.17;100.00;101247.88;10213552;28;20506;-67
2022/05/30 13:12:57;;;;;;;3.42;1.15;;;;;;;13.47;100.00;101246.13;10211461;28;20077;-68
2022/05/30 13:18:01;;;;;;;4.03;1.27;;;;;;;13.65;100.00;101261.47;10220627;28;20132;-67
2022/05/30 13:23:03;;;;;;;5.40;1.40;;;;;;;13.66;100.00;101260.31;10207797;28;20046;-67
2022/05/30 13:28:14;;;;;;;3.72;1.05;;;;;;;13.71;100.00;101262.09;10220264;28;20073;-67
2022/05/30 13:33:32;;;;;;;3.92;1.23;;;;;;;13.75;100.00;101262.25;10221911;28;20132;-67
2022/05/30 13:38:39;;;;;;;3.33;0.80;;;;;;;13.56;100.00;101266.16;10205985;28;20037;-73
2022/05/30 13:43:36;;;;;;;2.40;0.82;;;;;;;13.46;100.00;101277.50;10207659;28;20076;-67
2022/05/30 13:48:53;;;;;;;3.97;0.95;;;;;;;13.36;100.00;101272.31;10197735;28;20049;-67
2022/05/30 13:53:52;;;;;;;4.32;0.88;;;;;;;13.28;100.00;101270.38;10196580;28;20544;-67
2022/05/30 13:58:51;;;;;;;3.17;0.70;;;;;;;13.16;100.00;101271.78;10197610;28;20228;-67
2022/05/30 14:03:52;;;;;;;3.35;0.60;;;;;;;13.10;100.00;101281.31;10199500;28;20087;-67
2022/05/30 14:08:49;;;;;;;2.42;0.80;;;;;;;13.04;100.00;101277.09;10212597;28;20054;-67
2022/05/30 14:13:45;;;;;;;3.83;0.73;;;;;;;13.02;100.00;101276.63;10196940;28;20091;-67
2022/05/30 14:18:54;;;;;;;1.90;0.50;;;;;;;13.08;100.00;101278.06;10193984;28;20044;-67
2022/05/30 14:24:13;;;;;;;3.80;0.60;;;;;;;13.13;100.00;101286.13;10196915;28;20052;-67
2022/05/30 14:29:24;;;;;;;4.03;0.47;;;;;;;13.16;100.00;101285.53;10204082;28;20458;-67
2022/05/30 14:34:32;;;;;;;2.15;0.40;;;;;;;13.12;100.00;101284.53;10203761;28;20478;-67
2022/05/30 14:39:31;;;;;;;1.45;0.30;;;;;;;13.19;100.00;101290.34;10210094;28;20080;-68
2022/05/30 14:44:33;;;;;;;2.00;0.60;;;;;;;13.21;100.00;101288.09;10209570;28;20103;-67
2022/05/30 14:49:31;;;;;;;1.38;0.40;;;;;;;13.23;100.00;101291.34;10199440;28;20129;-67
2022/05/30 14:54:31;;;;;;;4.00;0.50;;;;;;;13.20;100.00;101293.91;10198895;28;20041;-67
2022/05/30 14:59:38;;;;;;;2.97;0.57;;;;;;;13.05;100.00;101300.69;10200040;28;20149;-67
2022/05/30 15:04:34;;;;;;;3.45;1.00;;;;;;;12.95;100.00;101300.97;10211661;28;20041;-66
2022/05/30 15:09:33;;;;;;;6.10;1.35;;;;;;;12.87;100.00;101299.81;10232530;28;20132;-67
2022/05/30 15:14:29;;;;;;;4.50;0.88;;;;;;;12.87;100.00;101299.81;10215335;28;20487;-67
2022/05/30 15:19:27;;;;;;;5.50;2.10;;;;;;;12.99;100.00;101297.25;10220340;28;20050;-67
2022/05/30 15:24:23;;;;;;;2.85;0.47;;;;;;;13.05;100.00;101295.19;10209581;28;20046;-67
2022/05/30 15:29:20;;;;;;;5.78;0.50;;;;;;;13.04;100.00;101291.63;10208622;28;20036;-67
2022/05/30 15:34:17;;;;;;;2.78;0.70;;;;;;;13.02;100.00;101295.84;10226547;28;20041;-67
2022/05/30 15:39:16;;;;;;;2.45;0.52;;;;;;;13.05;100.00;101286.94;10223525;28;20569;-68
2022/05/30 15:44:21;;;;;;;5.03;1.08;;;;;;;13.15;100.00;101289.38;10217326;28;20049;-67
2022/05/30 15:49:24;;;;;;;2.00;0.47;;;;;;;13.21;100.00;101288.09;10203650;28;20100;-68
2022/05/30 15:59:42;;;;;;;1.83;0.30;;;;;;;13.29;100.00;101285.72;10200598;28;20037;-67
2022/05/30 16:04:41;;;;;;;1.83;0.40;;;;;;;13.24;100.00;101290.19;10211729;28;20054;-67
2022/05/30 16:09:41;;;;;;;2.60;0.75;;;;;;;13.23;100.00;101293.28;10200461;28;20084;-67
2022/05/30 16:14:38;;;;;;;3.47;0.73;;;;;;;13.22;100.00;101289.69;10201694;28;20096;-67
2022/05/30 16:19:34;;;;;;;1.80;0.47;;;;;;;13.22;100.00;101286.97;10212627;28;20045;-67
2022/05/30 16:24:31;;;;;;;5.28;1.48;;;;;;;13.24;100.00;101286.66;10220774;28;20041;-66
2022/05/30 16:29:28;;;;;;;2.55;0.70;;;;;;;13.02;100.00;101290.34;10219921;28;20042;-68
2022/05/30 16:34:24;;;;;;;3.13;1.00;;;;;;;13.03;100.00;101291.94;10221279;28;20566;-67
2022/05/30 16:39:21;;;;;;;4.82;1.50;;;;;;;12.93;100.00;101293.06;10206048;28;20613;-65
2022/05/30 16:44:23;;;;;;;2.15;0.47;;;;;;;12.85;100.00;101297.38;10211321;28;20041;-66
2022/05/30 16:49:21;;;;;;;4.95;1.83;;;;;;;12.79;100.00;101297.88;10204717;28;20513;-66
2022/05/30 16:54:19;;;;;;;3.22;0.52;;;;;;;12.83;100.00;101298.84;10213641;28;20103;-67
2022/05/30 16:59:15;;;;;;;6.55;1.52;;;;;;;12.83;100.00;101304.31;10213435;28;20555;-67
2022/05/30 17:04:12;;;;;;;3.92;0.70;;;;;;;12.80;100.00;101305.78;10203937;28;20569;-66
2022/05/30 17:09:24;;;;;;;2.15;0.50;;;;;;;12.80;100.00;101300.28;10196473;28;20042;-67
2022/05/30 17:14:22;;;;;;;2.08;0.60;;;;;;;12.90;100.00;101301.13;10220781;28;20512;-67
2022/05/30 17:19:20;;;;;;;4.22;1.20;;;;;;;12.97;100.00;101312.44;10206479;28;20042;-66
2022/05/30 17:24:17;;;;;;;6.18;0.90;;;;;;;13.46;100.00;101311.25;10204200;28;20711;-66
2022/05/30 17:29:20;;;;;;;3.15;0.70;;;;;;;13.47;100.00;101312.84;10202656;28;20451;-66
2022/05/30 17:34:20;;;;;;;2.83;0.73;;;;;;;13.44;100.00;101312.72;10200878;28;20053;-66
2022/05/30 17:39:17;;;;;;;2.70;0.43;;;;;;;14.78;94.88;101314.50;10190973;28;20140;-66
2022/05/30 17:44:15;;;;;;;4.40;0.80;;;;;;;15.62;89.16;101315.41;10205744;28;20053;-67
2022/05/30 17:49:38;;;;;;;10.80;3.15;;;;;;;15.74;89.11;101312.72;10194518;28;20567;-67
2022/05/30 17:54:35;;;;;;;3.80;1.02;;;;;;;15.92;83.82;101316.13;10198675;28;20759;-67
2022/05/30 17:59:32;;;;;;;3.08;0.70;;;;;;;15.89;90.23;101318.75;10208558;28;20554;-67
2022/05/30 18:04:30;;;;;;;2.72;0.60;;;;;;;15.29;89.13;101316.16;10203078;28;20069;-66
2022/05/30 18:09:48;;;;;;;4.07;1.20;;;;;;;14.86;92.19;101317.22;10199607;28;20069;-66
2022/05/30 18:15:12;;;;;;;6.55;2.10;;;;;;;14.32;93.84;101322.47;10204641;28;20045;-67
2022/05/30 18:20:14;;;;;;;;;;;;;;;13.86;97.84;101326.75;10205751;28;20559;-67
2022/05/30 18:25:43;;;;;;;2.22;0.57;;;;;;;13.67;100.00;101327.91;10211505;28;20277;-67
2022/05/30 18:31:00;;;;;;;3.67;1.42;;;;;;;13.59;100.00;101336.94;10213141;28;20049;-67
2022/05/30 18:36:23;;;;;;;3.05;0.90;;;;;;;13.45;100.00;101339.03;10211604;28;20070;-67
2022/05/30 18:41:48;;;;;;;3.88;0.80;;;;;;;13.15;100.00;101338.78;10211870;28;20160;-69
2022/05/30 18:46:53;;;;;;;2.85;1.05;;;;;;;13.00;100.00;101336.53;10205416;28;20476;-67
2022/05/30 18:51:58;;;;;;;3.95;0.70;;;;;;;12.92;100.00;101348.28;10205585;28;20523;-67
2022/05/30 18:57:03;;;;;;;3.13;1.00;;;;;;;12.79;100.00;101359.06;10189697;28;20062;-66
2022/05/30 19:02:03;;;;;;;3.67;0.50;;;;;;;12.64;100.00;101356.72;10194826;28;20039;-67
2022/05/30 19:06:59;;;;;;;5.22;1.60;;;;;;;12.47;100.00;101362.13;10200123;28;20176;-66
2022/05/30 19:12:06;;;;;;;6.10;2.05;;;;;;;12.45;100.00;101375.34;10205329;28;20118;-66
2022/05/30 19:17:23;;;;;;;3.40;1.27;;;;;;;12.38;100.00;101382.09;10200766;28;20041;-67
2022/05/30 19:22:19;;;;;;;6.43;2.08;;;;;;;12.30;100.00;101384.75;10181774;28;20080;-67
2022/05/30 19:27:17;;;;;;;2.80;0.85;;;;;;;12.21;100.00;101382.00;10190050;28;20057;-66
2022/05/30 19:32:14;;;;;;;4.82;1.00;;;;;;;12.09;100.00;101389.94;10187022;28;20710;-67
2022/05/30 19:37:11;;;;;;;3.03;1.20;;;;;;;11.99;100.00;101397.28;10180270;28;20049;-67
2022/05/30 19:42:11;;;;;;;4.90;0.90;;;;;;;11.93;100.00;101409.50;10184236;28;20073;-66
2022/05/30 19:47:07;;;;;;;3.72;0.80;;;;;;;11.86;100.00;101413.75;10187678;28;20525;-67
2022/05/30 19:52:04;;;;;;;3.55;0.75;;;;;;;11.78;100.00;101418.84;10190191;28;20123;-67
2022/05/30 19:57:02;;;;;;;2.90;1.08;;;;;;;11.72;100.00;101419.28;10204838;28;20505;-67
2022/05/30 20:01:59;;;;;;;2.45;0.65;;;;;;;11.70;100.00;101421.53;10216570;28;20049;-66
2022/05/30 20:06:58;;;;;;;2.20;0.47;;;;;;;11.64;100.00;101418.06;10209559;28;20188;-65
2022/05/30 20:11:55;;;;;;;3.72;1.20;;;;;;;11.57;100.00;101426.72;10207787;28;20379;-64
2022/05/30 20:16:51;;;;;;;3.03;1.13;;;;;;;11.53;100.00;101427.63;10204417;28;20493;-63
2022/05/30 20:21:49;;;;;;;2.95;1.00;;;;;;;11.43;100.00;101434.16;10215269;28;20077;-63
2022/05/30 20:26:47;;;;;;;2.45;0.93;;;;;;;11.35;100.00;101437.63;10206874;28;20062;-63
2022/05/30 20:31:43;;;;;;;3.08;0.68;;;;;;;11.25;100.00;101437.81;10209788;28;20076;-63
2022/05/30 20:36:40;;;;;;;2.85;1.15;;;;;;;11.14;100.00;101438.03;10202866;28;20046;-64
2022/05/30 20:46:52;;;;;;;2.35;0.60;;;;;;;10.98;100.00;101439.44;10214787;28;20583;-63
2022/05/30 20:51:49;;;;;;;3.38;0.85;;;;;;;10.88;100.00;101439.59;10227232;28;20064;-62
2022/05/30 20:56:45;;;;;;;2.47;0.88;;;;;;;10.77;100.00;101443.63;10218200;28;20064;-66
2022/05/30 21:01:42;;;;;;;3.40;1.20;;;;;;;10.70;100.00;101447.59;10219460;28;20079;-66
2022/05/30 21:06:38;;;;;;;3.45;1.17;;;;;;;10.59;100.00;101448.88;10221008;28;20503;-62
2022/05/30 21:11:35;;;;;;;2.55;0.90;;;;;;;10.49;100.00;101449.88;10216441;28;20469;-63
2022/05/30 21:16:38;;;;;;;3.72;0.90;;;;;;;10.38;100.00;101459.34;10214407;28;20558;-63
2022/05/30 21:21:42;;;;;;;6.25;1.10;;;;;;;10.30;100.00;101458.13;10223068;28;20053;-63
2022/05/30 21:26:39;;;;;;;2.83;0.93;;;;;;;10.13;100.00;101457.78;10221408;28;20084;-63
2022/05/30 21:31:41;;;;;;;2.15;0.90;;;;;;;10.07;100.00;101458.97;10224269;28;20057;-63
2022/05/30 21:36:52;;;;;;;6.47;3.00;;;;;;;9.95;100.00;101451.22;10228180;28;20053;-65
2022/05/30 21:41:50;;;;;;;7.28;2.80;;;;;;;9.89;100.00;101458.69;10226814;28;20111;-65
2022/05/30 21:46:47;;;;;;;6.60;2.30;;;;;;;9.87;100.00;101460.91;10222319;28;20223;-65
2022/05/30 21:51:44;;;;;;;5.20;1.98;;;;;;;9.79;100.00;101458.81;10233598;28;20662;-65
2022/05/30 21:56:48;;;;;;;3.72;1.42;;;;;;;9.78;100.00;101468.13;10230112;28;20428;-63
2022/05/30 22:01:45;;;;;;;4.85;1.60;;;;;;;9.82;100.00;101469.16;10231772;28;20580;-63
2022/05/30 22:06:42;;;;;;;2.78;1.30;;;;;;;9.80;100.00;101471.38;10224485;28;20140;-64
2022/05/30 22:11:38;;;;;;;4.32;1.50;;;;;;;9.70;100.00;101474.25;10236420;28;20690;-62
2022/05/30 22:16:34;;;;;;;5.95;1.70;;;;;;;9.63;100.00;101476.50;10230787;28;20129;-62
2022/05/30 22:21:32;;;;;;;3.50;1.40;;;;;;;9.57;100.00;101472.25;10235960;28;20048;-61
2022/05/30 22:26:31;;;;;;;2.92;1.23;;;;;;;9.50;100.00;101477.25;10221131;28;20049;-62
2022/05/30 22:31:29;;;;;;;3.05;1.20;;;;;;;9.41;100.00;101485.25;10229733;28;20065;-63
2022/05/30 22:36:29;;;;;;;3.97;1.40;;;;;;;9.37;100.00;101476.81;10224582;28;20045;-65
2022/05/30 22:41:25;;;;;;;4.82;1.17;;;;;;;9.29;100.00;101472.03;10231986;28;20416;-65
2022/05/30 22:46:22;;;;;;;3.30;1.27;;;;;;;9.28;100.00;101486.75;10227121;28;20483;-62
2022/05/30 22:51:19;;;;;;;4.15;1.50;;;;;;;9.21;100.00;101475.38;10231297;28;20137;-62
2022/05/30 22:56:16;;;;;;;3.70;1.20;;;;;;;9.18;100.00;101473.25;10228380;28;20501;-62
2022/05/30 23:01:15;;;;;;;5.10;1.40;;;;;;;9.20;100.00;101473.75;10222196;28;20099;-62
2022/05/30 23:06:12;;;;;;;3.08;1.20;;;;;;;9.21;100.00;101478.09;10229290;28;20077;-62
2022/05/30 23:11:15;;;;;;;3.72;1.27;;;;;;;9.26;100.00;101472.63;10222946;28;20599;-64
2022/05/30 23:16:15;;;;;;;3.33;1.40;;;;;;;9.28;100.00;101475.84;10223258;28;20045;-64
2022/05/30 23:21:16;;;;;;;3.60;1.23;;;;;;;9.27;100.00;101475.03;10222807;28;20045;-63
2022/05/30 23:26:14;;;;;;;4.35;1.10;;;;;;;9.25;100.00;101481.88;10226801;28;20049;-63
2022/05/30 23:31:11;;;;;;;2.75;1.20;;;;;;;9.20;100.00;101481.94;10233293;28;20100;-63
2022/05/30 23:36:08;;;;;;;5.00;1.30;;;;;;;9.24;100.00;101491.19;10230692;28;20071;-65